Time;durP1;ratioP1;P1;durP2;ratioP2;P2;SDS_P1;SDS_P2;PMS_P1;PMS_P2;Temp;Humidity;BMP_temperature;BMP_pressure;BME280_temperature;BME280_humidity;BME280_pressure;Samples;Min_cycle;Max_cycle;Signal;HPM_P1;HPM_P2
2022/01/23 00:00:55;;;;;;;;;;;15.70;33.20;;;;;;8264755;28;19975;-51
2022/01/23 00:04:55;;;;;;;;;;;15.70;33.20;;;;;;8297205;28;19921;-50
2022/01/23 00:08:56;;;;;;;;;;;15.70;33.20;;;;;;8304317;28;19917;-54
2022/01/23 00:13:08;;;;;;;;;;;15.70;33.20;;;;;;8329506;28;19921;-51
2022/01/23 00:17:20;;;;;;;;;;;15.70;33.20;;;;;;8343985;28;19924;-49
2022/01/23 00:21:20;;;;;;;;;;;15.70;33.20;;;;;;8336791;28;20400;-53
2022/01/23 00:33:59;;;;;;;;;;;15.70;33.20;;;;;;8338104;28;19924;-50
2022/01/23 00:38:00;;;;;;;;;;;15.70;33.20;;;;;;8336173;28;19913;-54
2022/01/23 00:42:01;;;;;;;;;;;15.70;33.20;;;;;;8336563;28;19925;-50
2022/01/23 00:46:22;;;;;;;;;;;15.70;33.20;;;;;;8335477;28;19987;-49
2022/01/23 00:50:22;;;;;;;;;;;15.70;33.20;;;;;;8335362;28;20011;-50
2022/01/23 00:54:24;;;;;;;;;;;15.70;33.20;;;;;;8335392;28;19920;-53
2022/01/23 00:58:25;;;;;;;;;;;15.60;33.20;;;;;;8334626;28;19921;-51
2022/01/23 01:02:26;;;;;;;;;;;15.60;33.20;;;;;;8334989;28;19929;-53
2022/01/23 01:06:27;;;;;;;;;;;15.60;33.20;;;;;;8334902;28;19960;-51
2022/01/23 01:10:35;;;;;;;;;;;15.60;33.20;;;;;;8334278;28;19924;-53
2022/01/23 01:31:49;;;;;;;;;;;15.60;33.10;;;;;;8334000;28;19971;-53
2022/01/23 01:35:59;;;;;;;;;;;15.60;33.20;;;;;;8335404;28;20040;-50
2022/01/23 01:39:59;;;;;;;;;;;15.60;33.10;;;;;;8333339;28;19924;-53
2022/01/23 01:44:00;;;;;;;;;;;15.60;33.20;;;;;;8333985;28;19920;-52
2022/01/23 01:48:02;;;;;;;;;;;15.60;33.40;;;;;;8333770;28;20004;-49
2022/01/23 01:52:03;;;;;;;;;;;15.60;33.20;;;;;;8333002;28;19940;-50
2022/01/23 01:56:06;;;;;;;;;;;15.50;33.20;;;;;;8333316;28;19917;-52
2022/01/23 02:08:46;;;;;;;;;;;15.50;33.10;;;;;;8333430;28;20385;-51
2022/01/23 02:13:02;;;;;;;;;;;15.50;33.10;;;;;;8332854;28;19917;-52
2022/01/23 02:50:37;;;;;;;;;;;15.50;33.10;;;;;;8331957;28;19940;-49
2022/01/23 02:55:43;;;;;;;;;;;15.50;33.20;;;;;;8330871;28;19944;-52
2022/01/23 02:59:43;;;;;;;;;;;15.40;33.10;;;;;;8331508;28;20271;-50
2022/01/23 03:03:47;;;;;;;;;;;15.40;33.00;;;;;;8331838;28;19925;-52
2022/01/23 03:12:06;;;;;;;;;;;15.40;33.10;;;;;;8331448;28;19924;-49
2022/01/23 03:29:01;;;;;;;;;;;15.50;33.10;;;;;;8330531;28;19913;-53
2022/01/23 03:32:59;;;;;;;;;;;15.50;33.10;;;;;;8330367;28;19996;-54
2022/01/23 03:36:59;;;;;;;;;;;15.50;33.00;;;;;;8330376;28;20389;-50
2022/01/23 03:41:00;;;;;;;;;;;15.50;32.90;;;;;;8330142;28;19987;-49
2022/01/23 03:45:28;;;;;;;;;;;15.50;32.90;;;;;;8330325;28;19971;-51
2022/01/23 03:49:33;;;;;;;;;;;15.60;32.90;;;;;;8329469;28;19921;-51
2022/01/23 03:53:33;;;;;;;;;;;15.60;32.90;;;;;;8315037;28;19917;-49
2022/01/23 03:57:34;;;;;;;;;;;15.60;32.90;;;;;;8297514;28;19924;-52
2022/01/23 04:01:34;;;;;;;;;;;15.60;32.90;;;;;;8296718;28;19932;-53
2022/01/23 04:05:35;;;;;;;;;;;15.60;32.90;;;;;;8297125;28;19921;-51
2022/01/23 04:09:37;;;;;;;;;;;15.60;33.00;;;;;;8297524;28;19913;-51
2022/01/23 04:13:49;;;;;;;;;;;15.60;33.00;;;;;;8296653;28;19918;-50
2022/01/23 04:35:28;;;;;;;;;;;15.50;33.00;;;;;;8296464;28;19920;-52
2022/01/23 05:01:15;;;;;;;;;;;15.50;33.10;;;;;;8253540;28;19932;-53
2022/01/23 05:05:18;;;;;;;;;;;15.50;33.10;;;;;;8283716;28;19928;-53
2022/01/23 05:09:19;;;;;;;;;;;15.50;33.20;;;;;;8302367;28;20370;-51
2022/01/23 05:13:19;;;;;;;;;;;15.50;33.20;;;;;;8301488;28;20043;-53
2022/01/23 05:17:20;;;;;;;;;;;15.50;33.20;;;;;;8301921;28;20392;-53
2022/01/23 05:21:51;;;;;;;;;;;15.50;33.20;;;;;;8301722;28;19961;-50
2022/01/23 05:25:47;;;;;;;;;;;15.50;33.20;;;;;;8300821;28;20005;-54
2022/01/23 05:29:47;;;;;;;;;;;15.50;33.20;;;;;;8301591;28;20290;-53
2022/01/23 05:33:48;;;;;;;;;;;15.50;33.20;;;;;;8301355;28;19997;-52
2022/01/23 05:37:48;;;;;;;;;;;15.40;33.20;;;;;;8300706;28;19917;-51
2022/01/23 05:41:54;;;;;;;;;;;15.50;33.20;;;;;;8301109;28;19922;-54
2022/01/23 05:45:54;;;;;;;;;;;15.50;33.20;;;;;;8301142;28;20269;-52
2022/01/23 05:49:55;;;;;;;;;;;15.50;33.20;;;;;;8300948;28;19920;-52
2022/01/23 05:53:55;;;;;;;;;;;15.50;33.20;;;;;;8300610;28;19922;-52
2022/01/23 05:57:56;;;;;;;;;;;15.40;33.20;;;;;;8299968;28;19913;-52
2022/01/23 06:01:56;;;;;;;;;;;15.50;33.30;;;;;;8300582;28;19968;-52
2022/01/23 06:05:57;;;;;;;;;;;15.40;33.20;;;;;;8300394;28;19933;-50
2022/01/23 06:09:57;;;;;;;;;;;15.50;33.30;;;;;;8299895;28;20004;-53
2022/01/23 06:13:58;;;;;;;;;;;15.40;33.20;;;;;;8300225;28;19925;-50
2022/01/23 06:17:58;;;;;;;;;;;15.40;33.20;;;;;;8299839;28;20085;-50
2022/01/23 06:21:58;;;;;;;;;;;15.40;33.30;;;;;;8299274;28;19925;-50
2022/01/23 06:25:59;;;;;;;;;;;15.40;33.30;;;;;;8299704;28;19917;-52
2022/01/23 06:30:00;;;;;;;;;;;15.40;33.30;;;;;;8299750;28;19967;-51
2022/01/23 06:34:01;;;;;;;;;;;15.40;33.30;;;;;;8299008;28;19917;-50
2022/01/23 06:38:01;;;;;;;;;;;15.40;33.30;;;;;;8299248;28;19917;-53
2022/01/23 06:42:02;;;;;;;;;;;15.40;33.30;;;;;;8299284;28;19925;-51
2022/01/23 06:46:02;;;;;;;;;;;15.40;33.30;;;;;;8298583;28;20012;-53
2022/01/23 06:50:03;;;;;;;;;;;15.40;33.90;;;;;;8299151;28;20557;-51
2022/01/23 06:54:03;;;;;;;;;;;15.40;33.30;;;;;;8298802;28;19917;-51
2022/01/23 06:58:04;;;;;;;;;;;15.40;33.30;;;;;;8298376;28;19924;-50
2022/01/23 07:02:04;;;;;;;;;;;15.40;33.30;;;;;;8298612;28;20020;-54
2022/01/23 07:06:05;;;;;;;;;;;15.40;33.30;;;;;;8298830;28;19925;-50
2022/01/23 07:10:06;;;;;;;;;;;15.40;33.30;;;;;;8298187;28;19917;-54
2022/01/23 07:14:06;;;;;;;;;;;15.40;33.40;;;;;;8298410;28;19926;-51
2022/01/23 07:18:06;;;;;;;;;;;15.40;33.40;;;;;;8298046;28;19924;-53
2022/01/23 07:22:07;;;;;;;;;;;15.30;33.30;;;;;;8297524;28;20370;-50
2022/01/23 07:26:08;;;;;;;;;;;15.40;33.40;;;;;;8297971;28;19917;-52
2022/01/23 07:30:20;;;;;;;;;;;15.40;33.40;;;;;;8298185;28;19945;-53
2022/01/23 07:34:21;;;;;;;;;;;15.40;33.40;;;;;;8297881;28;20302;-51
2022/01/23 07:38:21;;;;;;;;;;;15.40;33.40;;;;;;8297707;28;19964;-52
2022/01/23 07:42:21;;;;;;;;;;;15.40;33.40;;;;;;8297681;28;20012;-50
2022/01/23 07:46:22;;;;;;;;;;;15.40;33.40;;;;;;8297218;28;19925;-52
2022/01/23 07:50:23;;;;;;;;;;;15.40;33.40;;;;;;8297901;28;19918;-52
2022/01/23 07:54:23;;;;;;;;;;;15.40;33.40;;;;;;8297335;28;19926;-53
2022/01/23 07:58:24;;;;;;;;;;;15.40;33.40;;;;;;8296879;28;20024;-51
2022/01/23 08:02:24;;;;;;;;;;;15.40;33.40;;;;;;8297381;28;19988;-51
2022/01/23 08:06:28;;;;;;;;;;;15.40;33.50;;;;;;8296519;28;20012;-49
2022/01/23 08:10:29;;;;;;;;;;;15.40;34.00;;;;;;8296939;28;19921;-49
2022/01/23 08:14:29;;;;;;;;;;;15.40;33.50;;;;;;8296275;28;19918;-52
2022/01/23 08:18:30;;;;;;;;;;;15.40;33.50;;;;;;8290778;28;20339;-51
2022/01/23 08:22:31;;;;;;;;;;;15.40;33.50;;;;;;8296421;28;19932;-52
2022/01/23 08:26:31;;;;;;;;;;;15.40;33.50;;;;;;8296949;28;19913;-50
2022/01/23 08:30:32;;;;;;;;;;;15.40;33.50;;;;;;8297083;28;19924;-51
2022/01/23 08:34:32;;;;;;;;;;;15.40;33.50;;;;;;8297166;28;19928;-52
2022/01/23 08:38:34;;;;;;;;;;;15.40;33.50;;;;;;8303165;28;20377;-51
2022/01/23 08:42:34;;;;;;;;;;;15.40;33.60;;;;;;8302918;28;19925;-52
2022/01/23 08:46:35;;;;;;;;;;;15.40;33.50;;;;;;8302405;28;19964;-54
2022/01/23 08:50:35;;;;;;;;;;;15.40;33.60;;;;;;8303225;28;19917;-52
2022/01/23 08:54:36;;;;;;;;;;;15.40;33.50;;;;;;8302604;28;20005;-53
2022/01/23 08:58:36;;;;;;;;;;;15.40;33.60;;;;;;8302027;28;19924;-53
2022/01/23 09:02:37;;;;;;;;;;;15.40;33.60;;;;;;8302402;28;20318;-51
2022/01/23 09:06:37;;;;;;;;;;;15.40;33.60;;;;;;8302393;28;19917;-54
2022/01/23 09:10:43;;;;;;;;;;;15.40;33.60;;;;;;8301499;28;19987;-51
2022/01/23 09:14:43;;;;;;;;;;;15.40;33.60;;;;;;8301922;28;20008;-54
2022/01/23 09:18:44;;;;;;;;;;;15.40;33.60;;;;;;8301721;28;20294;-53
2022/01/23 09:22:44;;;;;;;;;;;15.40;33.60;;;;;;8301007;28;20020;-52
2022/01/23 09:26:52;;;;;;;;;;;15.50;33.60;;;;;;8302275;28;19975;-54
2022/01/23 09:30:54;;;;;;;;;;;15.40;33.60;;;;;;8302539;28;20008;-54
2022/01/23 09:34:55;;;;;;;;;;;15.50;33.60;;;;;;8301229;28;20299;-54
2022/01/23 09:38:55;;;;;;;;;;;15.50;33.60;;;;;;8301109;28;19968;-54
2022/01/23 09:43:04;;;;;;;;;;;15.50;33.60;;;;;;8300343;28;19929;-52
2022/01/23 09:47:05;;;;;;;;;;;15.50;33.60;;;;;;8300929;28;19913;-52
2022/01/23 09:51:05;;;;;;;;;;;15.50;33.60;;;;;;8301122;28;19961;-51
2022/01/23 09:55:09;;;;;;;;;;;15.50;33.60;;;;;;8300275;28;19954;-54
2022/01/23 09:59:11;;;;;;;;;;;15.50;33.60;;;;;;8300672;28;19924;-54
2022/01/23 10:03:11;;;;;;;;;;;15.50;33.70;;;;;;8298277;28;19925;-53
2022/01/23 10:07:12;;;;;;;;;;;15.50;33.60;;;;;;8299826;28;20286;-54
2022/01/23 10:11:13;;;;;;;;;;;15.50;33.60;;;;;;8300721;28;19920;-53
2022/01/23 10:15:14;;;;;;;;;;;15.50;33.60;;;;;;8300112;28;19917;-51
2022/01/23 10:19:15;;;;;;;;;;;15.60;33.80;;;;;;8299422;28;19917;-55
2022/01/23 10:23:15;;;;;;;;;;;15.60;33.70;;;;;;8299984;28;19922;-52
2022/01/23 10:27:17;;;;;;;;;;;15.60;33.70;;;;;;8299639;28;20027;-52
2022/01/23 10:31:17;;;;;;;;;;;15.60;33.70;;;;;;8299339;28;19921;-51
2022/01/23 10:35:18;;;;;;;;;;;15.60;33.70;;;;;;8299546;28;19921;-53
2022/01/23 10:39:19;;;;;;;;;;;15.60;33.70;;;;;;8299294;28;19967;-52
2022/01/23 10:51:22;;;;;;;;;;;15.60;33.70;;;;;;8299173;28;20393;-51
2022/01/23 10:55:25;;;;;;;;;;;15.60;33.70;;;;;;8298392;28;19964;-54
2022/01/23 10:59:37;;;;;;;;;;;15.60;33.70;;;;;;8297916;28;19929;-52
2022/01/23 11:03:38;;;;;;;;;;;15.60;33.70;;;;;;8302163;28;19929;-53
2022/01/23 11:07:39;;;;;;;;;;;15.70;33.80;;;;;;8297907;28;19922;-51
2022/01/23 11:11:44;;;;;;;;;;;15.60;33.70;;;;;;8297875;28;19980;-53
2022/01/23 11:20:04;;;;;;;;;;;15.70;33.80;;;;;;8297737;28;19978;-52
2022/01/23 11:24:04;;;;;;;;;;;15.70;33.80;;;;;;8297988;28;20375;-51
2022/01/23 11:28:05;;;;;;;;;;;15.70;33.80;;;;;;8297546;28;20293;-52
2022/01/23 11:32:06;;;;;;;;;;;15.70;33.80;;;;;;8298176;28;20290;-50
2022/01/23 11:36:07;;;;;;;;;;;15.70;33.80;;;;;;8297642;28;19925;-55
2022/01/23 11:40:23;;;;;;;;;;;15.70;33.80;;;;;;8297208;28;19949;-54
2022/01/23 11:57:42;;;;;;;;;;;15.70;33.80;;;;;;8300857;28;20032;-52
2022/01/23 12:01:45;;;;;;;;;;;15.70;33.80;;;;;;8296762;28;19926;-52
2022/01/23 12:05:49;;;;;;;;;;;15.70;33.80;;;;;;8297528;28;20445;-54
2022/01/23 12:10:09;;;;;;;;;;;15.80;33.80;;;;;;8299766;28;19967;-53
2022/01/23 12:18:28;;;;;;;;;;;15.80;33.80;;;;;;8307940;28;19921;-51
2022/01/23 12:22:35;;;;;;;;;;;15.80;33.90;;;;;;8304217;28;19945;-49
2022/01/23 12:26:35;;;;;;;;;;;15.80;33.90;;;;;;8303517;28;19924;-49
2022/01/23 12:30:37;;;;;;;;;;;15.80;33.90;;;;;;8303123;28;19913;-51
2022/01/23 12:34:45;;;;;;;;;;;15.80;33.80;;;;;;8302923;28;20097;-53
2022/01/23 12:38:53;;;;;;;;;;;15.80;33.80;;;;;;8303163;28;19917;-51
2022/01/23 12:43:07;;;;;;;;;;;15.80;33.90;;;;;;8302841;28;19925;-52
2022/01/23 12:47:18;;;;;;;;;;;15.80;33.80;;;;;;8303255;28;19932;-51
2022/01/23 12:51:19;;;;;;;;;;;15.80;33.80;;;;;;8302668;28;19922;-50
2022/01/23 12:55:19;;;;;;;;;;;15.80;34.40;;;;;;8301893;28;20337;-51
2022/01/23 12:59:26;;;;;;;;;;;15.80;33.90;;;;;;8302345;28;19976;-51
2022/01/23 13:03:27;;;;;;;;;;;15.80;33.80;;;;;;8302537;28;19957;-49
2022/01/23 13:11:54;;;;;;;;;;;15.80;33.90;;;;;;8303545;28;20366;-52
2022/01/23 13:16:15;;;;;;;;;;;15.80;34.00;;;;;;8301678;28;19913;-51
2022/01/23 13:33:27;;;;;;;;;;;15.80;33.90;;;;;;8338062;28;20416;-49
2022/01/23 13:37:31;;;;;;;;;;;15.80;33.90;;;;;;8333798;28;19917;-49
2022/01/23 13:41:45;;;;;;;;;;;15.80;33.90;;;;;;8334138;28;19925;-52
2022/01/23 13:58:37;;;;;;;;;;;15.80;34.00;;;;;;8334161;28;19918;-53
2022/01/23 14:02:38;;;;;;;;;;;15.80;33.90;;;;;;8339463;28;19925;-53
2022/01/23 14:06:39;;;;;;;;;;;15.90;33.90;;;;;;8333356;28;20296;-51
2022/01/23 14:10:40;;;;;;;;;;;15.90;33.90;;;;;;8331412;28;19924;-53
2022/01/23 14:14:57;;;;;;;;;;;15.80;33.90;;;;;;8333322;28;19921;-51
2022/01/23 14:19:11;;;;;;;;;;;15.80;33.90;;;;;;8332344;28;19913;-52
2022/01/23 14:23:13;;;;;;;;;;;15.80;33.90;;;;;;8333043;28;19921;-54
2022/01/23 14:27:17;;;;;;;;;;;15.90;33.90;;;;;;8332934;28;20004;-52
2022/01/23 14:31:24;;;;;;;;;;;15.80;33.80;;;;;;8313874;28;20296;-53
2022/01/23 14:35:26;;;;;;;;;;;15.90;33.80;;;;;;8331911;28;20333;-54
2022/01/23 14:39:26;;;;;;;;;;;15.80;33.90;;;;;;8332058;28;19960;-53
2022/01/23 14:43:36;;;;;;;;;;;15.90;33.90;;;;;;8331861;28;20393;-55
2022/01/23 14:47:38;;;;;;;;;;;15.80;33.90;;;;;;8331796;28;20302;-51
2022/01/23 14:51:38;;;;;;;;;;;15.90;33.90;;;;;;8331910;28;20374;-55
2022/01/23 14:55:41;;;;;;;;;;;15.90;33.90;;;;;;8331012;28;20016;-54
2022/01/23 14:59:42;;;;;;;;;;;15.90;34.00;;;;;;8331646;28;19925;-51
2022/01/23 15:03:48;;;;;;;;;;;15.80;33.80;;;;;;8331551;28;20345;-54
2022/01/23 15:07:48;;;;;;;;;;;15.90;33.90;;;;;;8330925;28;20285;-50
2022/01/23 15:11:49;;;;;;;;;;;15.90;33.90;;;;;;8331138;28;19917;-54
2022/01/23 15:15:50;;;;;;;;;;;15.90;33.90;;;;;;8330589;28;20358;-51
2022/01/23 15:19:52;;;;;;;;;;;15.90;33.90;;;;;;8331123;28;19934;-54
2022/01/23 15:23:55;;;;;;;;;;;15.90;33.90;;;;;;8331182;28;19913;-51
2022/01/23 15:27:56;;;;;;;;;;;15.90;33.80;;;;;;8330139;28;19917;-52
2022/01/23 15:31:56;;;;;;;;;;;15.90;33.80;;;;;;8331065;28;20024;-51
2022/01/23 15:35:57;;;;;;;;;;;15.90;33.80;;;;;;8330668;28;19964;-51
2022/01/23 15:39:58;;;;;;;;;;;15.90;33.80;;;;;;8329948;28;19929;-50
2022/01/23 15:43:58;;;;;;;;;;;15.90;33.80;;;;;;8330225;28;19917;-53
2022/01/23 15:47:59;;;;;;;;;;;15.90;33.80;;;;;;8330215;28;19917;-53
2022/01/23 15:51:59;;;;;;;;;;;15.90;33.80;;;;;;8329749;28;19921;-55
2022/01/23 15:56:00;;;;;;;;;;;15.90;33.80;;;;;;8329992;28;19923;-53
2022/01/23 16:00:00;;;;;;;;;;;15.90;33.80;;;;;;8330098;28;19928;-53
2022/01/23 16:04:01;;;;;;;;;;;15.90;33.80;;;;;;8330176;28;19928;-49
2022/01/23 16:08:02;;;;;;;;;;;15.90;33.80;;;;;;8329811;28;19917;-54
2022/01/23 16:12:02;;;;;;;;;;;15.90;33.80;;;;;;8330012;28;19917;-51
2022/01/23 16:16:03;;;;;;;;;;;15.90;33.80;;;;;;8329225;28;19917;-50
2022/01/23 16:20:04;;;;;;;;;;;15.90;33.80;;;;;;8330109;28;20365;-51
2022/01/23 16:24:05;;;;;;;;;;;15.90;33.80;;;;;;8329834;28;19913;-53
2022/01/23 16:28:06;;;;;;;;;;;15.90;33.80;;;;;;8329441;28;19917;-53
2022/01/23 16:32:06;;;;;;;;;;;15.90;33.80;;;;;;8330025;28;19917;-54
2022/01/23 16:36:07;;;;;;;;;;;15.90;33.80;;;;;;8329557;28;19917;-52
2022/01/23 16:40:08;;;;;;;;;;;15.90;33.80;;;;;;8329173;28;19935;-54
2022/01/23 16:44:09;;;;;;;;;;;15.90;33.80;;;;;;8329521;28;19913;-53
2022/01/23 16:48:10;;;;;;;;;;;15.90;34.30;;;;;;8330456;28;20349;-50
2022/01/23 16:52:11;;;;;;;;;;;15.80;33.80;;;;;;8332008;28;19917;-49
2022/01/23 16:56:12;;;;;;;;;;;15.80;33.80;;;;;;8333036;28;20023;-49
2022/01/23 17:00:13;;;;;;;;;;;15.80;33.80;;;;;;8337143;28;19932;-53
2022/01/23 17:04:14;;;;;;;;;;;15.80;33.70;;;;;;8336692;28;19928;-51
2022/01/23 17:08:16;;;;;;;;;;;15.90;33.80;;;;;;8335204;28;19925;-54
2022/01/23 17:12:16;;;;;;;;;;;15.80;33.70;;;;;;8334848;28;19920;-54
2022/01/23 17:16:17;;;;;;;;;;;15.80;33.70;;;;;;8334194;28;19948;-54
2022/01/23 17:20:20;;;;;;;;;;;15.90;33.80;;;;;;8334705;28;19929;-54
2022/01/23 17:24:21;;;;;;;;;;;15.80;33.70;;;;;;8334522;28;19963;-54
2022/01/23 17:28:21;;;;;;;;;;;15.80;33.70;;;;;;8333768;28;19999;-52
2022/01/23 17:32:22;;;;;;;;;;;15.80;33.70;;;;;;8334265;28;20292;-54
2022/01/23 17:36:22;;;;;;;;;;;15.90;33.80;;;;;;8334337;28;19924;-53
2022/01/23 17:40:23;;;;;;;;;;;15.90;33.70;;;;;;8333303;28;20390;-50
2022/01/23 17:44:26;;;;;;;;;;;15.90;33.70;;;;;;8334332;28;20007;-50
2022/01/23 17:48:34;;;;;;;;;;;15.90;33.80;;;;;;8333631;28;19971;-52
2022/01/23 17:52:34;;;;;;;;;;;15.80;33.70;;;;;;8333763;28;19925;-51
2022/01/23 17:56:35;;;;;;;;;;;15.80;33.70;;;;;;8333497;28;20400;-53
2022/01/23 18:00:37;;;;;;;;;;;15.90;33.80;;;;;;8332479;28;19925;-51
2022/01/23 18:04:38;;;;;;;;;;;15.80;33.70;;;;;;8333247;28;19928;-51
2022/01/23 18:08:38;;;;;;;;;;;15.80;33.70;;;;;;8333007;28;19917;-51
2022/01/23 18:12:41;;;;;;;;;;;15.80;33.70;;;;;;8333097;28;20387;-50
2022/01/23 18:16:41;;;;;;;;;;;15.80;33.70;;;;;;8332404;28;19971;-54
2022/01/23 18:20:42;;;;;;;;;;;15.80;33.70;;;;;;8332997;28;19929;-52
2022/01/23 18:24:42;;;;;;;;;;;15.80;33.70;;;;;;8333072;28;19996;-51
2022/01/23 18:28:43;;;;;;;;;;;15.80;33.70;;;;;;8331992;28;19946;-50
2022/01/23 18:32:43;;;;;;;;;;;15.80;33.70;;;;;;8332266;28;19921;-50
2022/01/23 18:36:44;;;;;;;;;;;15.80;33.70;;;;;;8332365;28;20441;-50
2022/01/23 18:40:44;;;;;;;;;;;15.80;33.70;;;;;;8331456;28;19926;-50
2022/01/23 18:44:45;;;;;;;;;;;15.80;33.70;;;;;;8332079;28;20363;-51
2022/01/23 18:48:45;;;;;;;;;;;15.80;33.60;;;;;;8331569;28;19963;-50
2022/01/23 18:52:57;;;;;;;;;;;15.80;33.60;;;;;;8331275;28;19925;-50
2022/01/23 18:57:04;;;;;;;;;;;15.80;33.60;;;;;;8336811;28;20020;-48
2022/01/23 19:01:07;;;;;;;;;;;15.80;33.60;;;;;;8331020;28;19940;-49
2022/01/23 19:05:11;;;;;;;;;;;15.80;33.60;;;;;;8331773;28;20063;-50
2022/01/23 19:09:16;;;;;;;;;;;15.80;33.60;;;;;;8331293;28;19921;-50
2022/01/23 19:13:18;;;;;;;;;;;15.80;33.60;;;;;;8330445;28;19917;-51
2022/01/23 19:17:19;;;;;;;;;;;15.80;33.60;;;;;;8331176;28;19975;-49
2022/01/23 19:21:19;;;;;;;;;;;15.80;33.60;;;;;;8330141;28;20008;-52
2022/01/23 19:25:20;;;;;;;;;;;15.80;33.60;;;;;;8330489;28;19917;-49
2022/01/23 19:29:28;;;;;;;;;;;15.80;33.60;;;;;;8330897;28;19975;-50
2022/01/23 19:33:29;;;;;;;;;;;15.80;33.60;;;;;;8334284;28;20365;-50
2022/01/23 19:37:30;;;;;;;;;;;15.80;33.60;;;;;;8330053;28;19921;-48
2022/01/23 19:45:33;;;;;;;;;;;15.80;33.60;;;;;;8330730;28;19921;-53
2022/01/23 19:49:42;;;;;;;;;;;15.70;33.60;;;;;;8329800;28;20281;-50
2022/01/23 19:53:42;;;;;;;;;;;15.70;33.60;;;;;;8335973;28;19957;-53
2022/01/23 19:57:43;;;;;;;;;;;15.70;33.60;;;;;;8330053;28;19914;-52
2022/01/23 20:01:43;;;;;;;;;;;15.80;33.60;;;;;;8329045;28;19979;-49
2022/01/23 20:05:44;;;;;;;;;;;15.70;33.50;;;;;;8330462;28;19974;-51
2022/01/23 20:09:50;;;;;;;;;;;15.70;33.60;;;;;;8330030;28;19917;-49
2022/01/23 20:13:51;;;;;;;;;;;15.70;33.60;;;;;;8329791;28;19917;-53
2022/01/23 20:17:52;;;;;;;;;;;15.70;33.60;;;;;;8329774;28;20007;-50
2022/01/23 20:21:55;;;;;;;;;;;15.70;33.60;;;;;;8329294;28;20012;-54
2022/01/23 20:25:56;;;;;;;;;;;15.70;33.60;;;;;;8329961;28;19935;-51
2022/01/23 20:29:56;;;;;;;;;;;15.70;33.60;;;;;;8331229;28;19917;-52
2022/01/23 20:33:57;;;;;;;;;;;15.70;33.60;;;;;;8335576;28;19913;-54
2022/01/23 20:37:58;;;;;;;;;;;15.70;33.50;;;;;;8336078;28;20348;-51
2022/01/23 20:41:59;;;;;;;;;;;15.70;33.50;;;;;;8335847;28;19932;-52
2022/01/23 20:45:59;;;;;;;;;;;15.70;34.10;;;;;;8335486;28;20400;-49
2022/01/23 20:50:00;;;;;;;;;;;15.70;33.60;;;;;;8335462;28;20332;-52
2022/01/23 20:54:01;;;;;;;;;;;15.70;33.60;;;;;;8335486;28;20301;-52
2022/01/23 20:58:02;;;;;;;;;;;15.70;33.60;;;;;;8334677;28;19913;-52
2022/01/23 21:02:02;;;;;;;;;;;15.70;33.60;;;;;;8335489;28;19948;-50
2022/01/23 21:06:03;;;;;;;;;;;15.70;33.60;;;;;;8335602;28;19947;-51
2022/01/23 21:10:04;;;;;;;;;;;15.70;33.60;;;;;;8334474;28;20428;-53
2022/01/23 21:22:58;;;;;;;;;;;15.60;33.50;;;;;;8334246;28;19925;-51
2022/01/23 21:39:40;;;;;;;;;;;15.60;33.50;;;;;;8336282;28;20337;-51
2022/01/23 21:43:41;;;;;;;;;;;15.60;33.40;;;;;;8333208;28;19929;-50
2022/01/23 21:47:41;;;;;;;;;;;15.60;33.40;;;;;;8333587;28;19913;-51
2022/01/23 21:51:41;;;;;;;;;;;15.60;33.40;;;;;;8334399;28;20289;-50
2022/01/23 21:55:42;;;;;;;;;;;15.60;33.40;;;;;;8333101;28;19918;-50
2022/01/23 21:59:43;;;;;;;;;;;15.60;33.40;;;;;;8333541;28;19921;-50
2022/01/23 22:03:43;;;;;;;;;;;15.60;33.40;;;;;;8333454;28;20018;-48
2022/01/23 22:07:44;;;;;;;;;;;15.60;33.40;;;;;;8332705;28;19924;-52
2022/01/23 22:16:06;;;;;;;;;;;15.60;34.00;;;;;;8332828;28;19924;-51
2022/01/23 22:20:11;;;;;;;;;;;15.60;33.40;;;;;;8332743;28;19921;-54
2022/01/23 22:28:15;;;;;;;;;;;15.60;33.40;;;;;;8332189;28;19917;-50
2022/01/23 22:32:15;;;;;;;;;;;15.70;33.30;;;;;;8332342;28;19913;-53
2022/01/23 22:36:16;;;;;;;;;;;15.60;33.30;;;;;;8332425;28;19913;-50
2022/01/23 22:40:18;;;;;;;;;;;15.70;33.20;;;;;;8331655;28;19925;-49
2022/01/23 22:44:19;;;;;;;;;;;15.70;33.20;;;;;;8332292;28;19927;-51
2022/01/23 22:48:20;;;;;;;;;;;15.70;33.20;;;;;;8328816;28;20058;-49
2022/01/23 22:52:20;;;;;;;;;;;15.70;33.20;;;;;;8331336;28;19944;-50
2022/01/23 22:56:21;;;;;;;;;;;15.70;33.20;;;;;;8331688;28;19917;-52
2022/01/23 23:00:36;;;;;;;;;;;15.70;33.20;;;;;;8331178;28;19925;-52
2022/01/23 23:04:36;;;;;;;;;;;15.70;33.30;;;;;;8332965;28;19921;-50
2022/01/23 23:08:37;;;;;;;;;;;15.70;33.20;;;;;;8324574;28;19920;-48
2022/01/23 23:12:39;;;;;;;;;;;15.70;33.20;;;;;;8297129;28;19917;-50
2022/01/23 23:16:46;;;;;;;;;;;15.60;33.20;;;;;;8298181;28;19927;-50
2022/01/23 23:20:53;;;;;;;;;;;15.70;33.20;;;;;;8298365;28;19932;-51
2022/01/23 23:24:53;;;;;;;;;;;15.60;33.30;;;;;;8300293;28;19914;-49
2022/01/23 23:28:54;;;;;;;;;;;15.60;33.30;;;;;;8298167;28;19924;-49
2022/01/23 23:32:54;;;;;;;;;;;15.60;33.30;;;;;;8297995;28;19917;-53
2022/01/23 23:36:55;;;;;;;;;;;15.60;33.30;;;;;;8297833;28;20002;-50
2022/01/23 23:45:09;;;;;;;;;;;15.60;33.30;;;;;;8301314;28;19996;-50
2022/01/23 23:49:25;;;;;;;;;;;15.60;33.30;;;;;;8297376;28;19917;-52
2022/01/23 23:53:30;;;;;;;;;;;15.50;33.30;;;;;;8303925;28;19924;-49
2022/01/23 23:57:31;;;;;;;;;;;15.50;33.30;;;;;;8297880;28;19917;-49
